TimeEST,TemperatureF,Dew PointF,Humidity,Sea Level PressureIn,VisibilityMPH,Wind Direction,Wind SpeedMPH,Gust SpeedMPH,PrecipitationIn,Events,Conditions,WindDirDegrees,DateUTC
12:53 AM,39.0,28.0,65,30.10,10.0,NW,12.7,-,N/A,,Overcast,320,2012-11-06 05:53:00
1:53 AM,37.9,28.9,70,30.12,10.0,NW,10.4,-,N/A,,Clear,320,2012-11-06 06:53:00
2:53 AM,37.9,28.9,70,30.12,10.0,NNW,11.5,-,N/A,,Mostly Cloudy,340,2012-11-06 07:53:00
3:53 AM,37.9,28.9,70,30.13,10.0,NNW,8.1,-,N/A,,Mostly Cloudy,340,2012-11-06 08:53:00
4:53 AM,37.0,27.0,67,30.13,10.0,North,6.9,-,N/A,,Mostly Cloudy,350,2012-11-06 09:53:00
5:53 AM,36.0,27.0,70,30.14,10.0,North,5.8,-,N/A,,Mostly Cloudy,350,2012-11-06 10:53:00
7:53 AM,42.1,26.1,53,30.19,10.0,NNW,6.9,-,N/A,,Mostly Cloudy,330,2012-11-06 12:53:00
8:53 AM,39.9,25.0,55,30.20,10.0,North,4.6,-,N/A,,Partly Cloudy,360,2012-11-06 13:53:00
9:53 AM,42.1,27.0,55,30.21,10.0,NNE,10.4,-,N/A,,Clear,30,2012-11-06 14:53:00
10:53 AM,42.1,26.1,53,30.21,10.0,Calm,Calm,-,N/A,,Overcast,0,2012-11-06 15:53:00
11:53 AM,43.0,27.0,53,30.19,10.0,Calm,Calm,-,N/A,,Mostly Cloudy,0,2012-11-06 16:53:00
12:53 PM,43.0,27.0,53,30.18,10.0,NNE,6.9,-,N/A,,Mostly Cloudy,20,2012-11-06 17:53:00
1:53 PM,44.1,28.0,53,30.17,10.0,North,8.1,-,N/A,,Clear,350,2012-11-06 18:53:00
2:53 PM,43.0,28.0,56,30.17,10.0,North,9.2,-,N/A,,Clear,360,2012-11-06 19:53:00
3:53 PM,39.9,28.0,63,30.18,10.0,NNE,5.8,-,N/A,,Clear,30,2012-11-06 20:53:00
4:53 PM,35.1,27.0,72,30.18,10.0,NE,5.8,-,N/A,,Clear,40,2012-11-06 21:53:00
5:53 PM,32.0,27.0,82,30.18,10.0,NNE,8.1,-,N/A,,Clear,30,2012-11-06 22:53:00
6:53 PM,35.1,28.9,78,30.20,10.0,NNE,5.8,-,N/A,,Mostly Cloudy,20,2012-11-06 23:53:00
7:53 PM,37.0,30.9,79,30.18,10.0,NE,6.9,-,N/A,,Overcast,40,2012-11-07 00:53:00
8:53 PM,37.9,32.0,79,30.17,10.0,NE,6.9,-,N/A,,Mostly Cloudy,40,2012-11-07 01:53:00
9:53 PM,42.1,32.0,67,30.12,10.0,ENE,8.1,-,N/A,,Mostly Cloudy,60,2012-11-07 02:53:00
10:53 PM,44.1,30.9,60,30.11,10.0,ENE,10.4,-,N/A,,Mostly Cloudy,60,2012-11-07 03:53:00
11:53 PM,44.1,32.0,63,30.10,10.0,ENE,12.7,18.4,N/A,,Mostly Cloudy,70,2012-11-07 04:53:00